createdAt,value
2018-01-17T00:01:31.025Z,99089.97
2018-01-17T00:03:57.572Z,99077.63
2018-01-17T00:06:23.973Z,99075.60
2018-01-17T00:08:50.348Z,99073.58
2018-01-17T00:11:16.757Z,99084.78
2018-01-17T00:13:43.189Z,99077.64
2018-01-17T00:16:09.578Z,99074.93
2018-01-17T00:18:36.088Z,99084.50
2018-01-17T00:21:02.521Z,99092.09
2018-01-17T00:23:28.884Z,99087.45
2018-01-17T00:25:55.252Z,99089.44
2018-01-17T00:28:21.713Z,99086.47
2018-01-17T00:30:48.116Z,99074.09
2018-01-17T00:33:14.590Z,99061.08
2018-01-17T00:35:41.010Z,99068.58
2018-01-17T00:38:07.377Z,99083.75
2018-01-17T00:40:33.796Z,99082.44
2018-01-17T00:43:00.189Z,99074.54
2018-01-17T00:45:26.672Z,99066.94
2018-01-17T00:47:53.102Z,99079.17
2018-01-17T00:50:19.517Z,99069.77
2018-01-17T00:52:45.968Z,99062.88
2018-01-17T00:55:12.476Z,99069.48
2018-01-17T00:57:38.839Z,99069.06
2018-01-17T01:00:05.280Z,99061.98
2018-01-17T01:02:31.797Z,99064.94
2018-01-17T01:04:58.189Z,99068.47
2018-01-17T01:07:24.653Z,99060.75
2018-01-17T01:09:51.057Z,99049.98
2018-01-17T01:14:50.599Z,99050.20
2018-01-17T01:17:17.008Z,99042.33
2018-01-17T01:19:43.595Z,99045.32
2018-01-17T01:22:10.001Z,99044.30
2018-01-17T01:24:36.515Z,99045.75
2018-01-17T01:27:02.866Z,99053.70
2018-01-17T01:29:29.227Z,99054.02
2018-01-17T01:31:55.713Z,99054.33
2018-01-17T01:34:22.232Z,99044.84
2018-01-17T01:36:48.588Z,99031.14
2018-01-17T01:39:14.954Z,99021.14
2018-01-17T01:41:41.440Z,99018.98
2018-01-17T01:44:07.800Z,99007.98
2018-01-17T01:46:34.260Z,99011.03
2018-01-17T01:49:00.740Z,99010.08
2018-01-17T01:51:27.172Z,99016.72
2018-01-17T01:53:53.533Z,99012.25
2018-01-17T01:56:19.964Z,99008.06
2018-01-17T01:58:46.447Z,99011.73
2018-01-17T02:01:12.904Z,99021.12
2018-01-17T02:03:39.244Z,99013.70
2018-01-17T02:06:05.695Z,99007.64
2018-01-17T02:08:32.149Z,99008.13
2018-01-17T02:10:58.504Z,98990.52
2018-01-17T02:13:24.930Z,98984.60
2018-01-17T02:15:51.355Z,98962.91
2018-01-17T02:18:17.769Z,98958.64
2018-01-17T02:20:44.196Z,98954.89
2018-01-17T02:23:10.627Z,98949.27
2018-01-17T02:25:37.095Z,98943.98
2018-01-17T02:28:03.474Z,98943.76
2018-01-17T02:30:29.944Z,98941.78
2018-01-17T02:32:56.297Z,98933.84
2018-01-17T02:35:22.637Z,98923.81
2018-01-17T02:37:49.040Z,98930.77
2018-01-17T02:40:27.696Z,98929.73
2018-01-17T02:42:54.177Z,98941.66
2018-01-17T02:45:20.817Z,98944.39
2018-01-17T02:47:47.558Z,98954.16
2018-01-17T02:50:14.006Z,98952.85
2018-01-17T02:52:40.433Z,98941.85
2018-01-17T02:55:06.943Z,98947.13
2018-01-17T02:57:33.394Z,98947.58
2018-01-17T02:59:59.914Z,98943.41
2018-01-17T03:02:26.461Z,98948.63
2018-01-17T03:04:52.921Z,98937.52
2018-01-17T03:07:19.469Z,98931.17
2018-01-17T03:09:45.955Z,98928.59
2018-01-17T03:12:12.469Z,98916.41
2018-01-17T03:14:38.885Z,98914.05
2018-01-17T03:17:05.401Z,98911.97
2018-01-17T03:19:31.913Z,98906.69
2018-01-17T03:21:58.324Z,98901.22
2018-01-17T03:24:24.796Z,98894.45
2018-01-17T03:26:51.180Z,98891.94
2018-01-17T03:29:17.635Z,98890.55
2018-01-17T03:31:44.044Z,98885.31
2018-01-17T03:34:10.580Z,98876.45
2018-01-17T03:36:37.038Z,98866.66
2018-01-17T03:39:03.616Z,98866.30
2018-01-17T03:41:30.025Z,98860.01
2018-01-17T03:43:56.480Z,98868.80
2018-01-17T03:46:22.898Z,98867.14
2018-01-17T03:48:49.256Z,98869.70
2018-01-17T03:51:15.660Z,98863.68
2018-01-17T03:53:42.173Z,98865.70
2018-01-17T03:56:08.581Z,98850.14
2018-01-17T03:58:35.029Z,98829.98
2018-01-17T04:01:01.485Z,98833.82
2018-01-17T04:03:27.948Z,98831.36
2018-01-17T04:05:54.421Z,98830.38
2018-01-17T04:08:20.825Z,98822.17
2018-01-17T04:10:47.200Z,98820.95
2018-01-17T04:13:13.617Z,98818.11
2018-01-17T04:15:40.005Z,98828.31
2018-01-17T04:18:06.386Z,98833.47
2018-01-17T04:20:32.813Z,98839.39
2018-01-17T04:22:59.236Z,98836.67
2018-01-17T04:25:25.693Z,98830.89
2018-01-17T04:27:52.056Z,98834.33
2018-01-17T04:30:18.428Z,98844.01
2018-01-17T04:32:44.779Z,98836.77
2018-01-17T04:35:11.156Z,98835.05
2018-01-17T04:37:37.537Z,98835.52
2018-01-17T04:40:03.984Z,98837.98
2018-01-17T04:42:30.448Z,98822.59
2018-01-17T04:44:56.796Z,98817.67
2018-01-17T04:47:23.248Z,98816.04
2018-01-17T04:49:49.661Z,98808.35
2018-01-17T04:52:16.061Z,98817.70
2018-01-17T04:54:42.477Z,98822.23
2018-01-17T04:57:08.856Z,98830.38
2018-01-17T04:59:35.247Z,98837.39
2018-01-17T05:02:01.690Z,98847.77
2018-01-17T05:04:28.066Z,98841.27
2018-01-17T05:06:54.411Z,98843.17
2018-01-17T05:09:20.857Z,98845.58
2018-01-17T05:11:47.270Z,98839.48
2018-01-17T05:14:13.681Z,98836.34
2018-01-17T05:16:40.118Z,98819.36
2018-01-17T05:19:06.552Z,98821.17
2018-01-17T05:21:33.052Z,98827.06
2018-01-17T05:23:59.544Z,98833.84
2018-01-17T05:26:25.960Z,98822.79
2018-01-17T05:28:52.332Z,98820.28
2018-01-17T05:31:18.734Z,98823.34
2018-01-17T05:33:45.093Z,98830.69
2018-01-17T05:36:11.505Z,98824.97
2018-01-17T05:38:37.921Z,98811.83
2018-01-17T05:41:04.265Z,98804.89
2018-01-17T05:43:30.701Z,98795.34
2018-01-17T05:45:57.080Z,98794.64
2018-01-17T05:48:23.452Z,98799.11
2018-01-17T05:50:49.877Z,98801.77
2018-01-17T05:53:16.293Z,98799.25
2018-01-17T05:55:42.677Z,98805.17
2018-01-17T05:58:09.085Z,98795.30
2018-01-17T06:00:35.575Z,98796.02
2018-01-17T06:03:02.041Z,98788.30
2018-01-17T06:05:28.438Z,98781.89
2018-01-17T06:07:54.828Z,98789.23
2018-01-17T06:10:21.250Z,98785.32
2018-01-17T06:12:47.639Z,98770.75
2018-01-17T06:15:14.114Z,98770.39
2018-01-17T06:17:40.552Z,98772.77
2018-01-17T06:20:06.977Z,98773.48
2018-01-17T06:22:33.400Z,98776.75
2018-01-17T06:24:59.871Z,98787.20
2018-01-17T06:27:26.292Z,98795.55
2018-01-17T06:29:52.705Z,98793.97
2018-01-17T06:32:19.368Z,98782.22
2018-01-17T06:34:45.723Z,98795.61
2018-01-17T06:37:12.117Z,98793.46
2018-01-17T06:39:38.516Z,98793.73
2018-01-17T06:42:04.944Z,98789.54
2018-01-17T06:44:31.345Z,98790.91
2018-01-17T06:46:57.728Z,98794.08
2018-01-17T06:49:24.167Z,98796.56
2018-01-17T06:51:50.512Z,98786.25
2018-01-17T06:54:16.873Z,98793.61
2018-01-17T06:56:43.298Z,98789.64
2018-01-17T06:59:09.696Z,98776.00
2018-01-17T07:01:36.120Z,98776.20
2018-01-17T07:04:02.588Z,98781.78
2018-01-17T07:06:28.988Z,98793.16
2018-01-17T07:08:55.378Z,98799.14
2018-01-17T07:11:21.831Z,98799.17
2018-01-17T07:13:48.301Z,98801.10
2018-01-17T07:16:14.677Z,98796.38
2018-01-17T07:18:41.156Z,98792.84
2018-01-17T07:21:07.550Z,98793.98
2018-01-17T07:23:34.061Z,98789.47
2018-01-17T07:26:00.494Z,98791.31
2018-01-17T07:28:26.923Z,98798.09
2018-01-17T07:30:53.305Z,98800.17
2018-01-17T07:33:19.720Z,98794.91
2018-01-17T07:35:46.121Z,98801.90
2018-01-17T07:38:12.608Z,98811.92
2018-01-17T07:40:39.053Z,98816.41
2018-01-17T07:43:05.440Z,98818.88
2018-01-17T07:45:31.908Z,98820.05
2018-01-17T07:47:58.345Z,98820.34
2018-01-17T07:50:24.753Z,98817.98
2018-01-17T07:52:51.168Z,98818.88
2018-01-17T07:55:17.626Z,98823.34
2018-01-17T07:57:44.025Z,98825.98
2018-01-17T08:00:10.484Z,98824.16
2018-01-17T08:02:36.917Z,98824.70
2018-01-17T08:05:03.367Z,98812.00
2018-01-17T08:07:29.747Z,98814.97
2018-01-17T08:09:56.223Z,98824.16
2018-01-17T08:12:23.177Z,98817.48
2018-01-17T08:14:49.521Z,98818.69
2018-01-17T08:17:15.918Z,98800.04
2018-01-17T08:19:42.285Z,98797.72
2018-01-17T08:22:08.792Z,98796.95
2018-01-17T08:24:35.292Z,98795.23
2018-01-17T08:27:01.656Z,98783.85
2018-01-17T08:29:28.084Z,98760.87
2018-01-17T08:31:54.499Z,98764.97
2018-01-17T08:34:20.901Z,98764.11
2018-01-17T08:36:47.256Z,98762.25
2018-01-17T08:39:13.688Z,98759.47
2018-01-17T08:41:40.097Z,98759.75
2018-01-17T08:44:06.442Z,98757.94
2018-01-17T08:46:32.881Z,98743.36
2018-01-17T08:48:59.289Z,98747.76
2018-01-17T08:51:25.684Z,98739.49
2018-01-17T08:53:52.182Z,98732.84
2018-01-17T08:56:18.517Z,98732.38
2018-01-17T08:58:44.884Z,98729.01
2018-01-17T09:01:11.286Z,98714.36
2018-01-17T09:03:37.717Z,98708.73
2018-01-17T09:06:04.207Z,98699.13
2018-01-17T09:08:30.633Z,98692.88
2018-01-17T09:10:57.018Z,98682.22
2018-01-17T09:13:23.413Z,98677.14
2018-01-17T09:15:49.808Z,98665.02
2018-01-17T09:18:16.207Z,98643.23
2018-01-17T09:20:42.651Z,98639.75
2018-01-17T09:23:09.078Z,98630.52
2018-01-17T09:25:35.542Z,98620.92
2018-01-17T09:28:02.024Z,98603.79
2018-01-17T09:30:28.445Z,98592.67
2018-01-17T09:32:54.837Z,98587.24
2018-01-17T09:35:21.269Z,98574.66
2018-01-17T09:37:47.667Z,98564.01
2018-01-17T09:40:14.065Z,98557.73
2018-01-17T09:42:40.521Z,98544.13
2018-01-17T09:45:06.901Z,98544.92
2018-01-17T09:47:33.265Z,98531.81
2018-01-17T09:49:59.718Z,98531.44
2018-01-17T09:52:26.236Z,98528.48
2018-01-17T09:54:52.609Z,98519.53
2018-01-17T09:57:18.972Z,98513.03
2018-01-17T09:59:45.397Z,98506.52
2018-01-17T10:02:11.765Z,98495.98
2018-01-17T10:04:38.138Z,98486.26
2018-01-17T10:07:04.553Z,98476.17
2018-01-17T10:09:30.950Z,98471.92
2018-01-17T10:11:57.353Z,98456.19
2018-01-17T10:14:23.761Z,98442.42
2018-01-17T10:16:50.129Z,98423.86
2018-01-17T10:19:16.520Z,98409.25
2018-01-17T10:21:42.960Z,98396.75
2018-01-17T10:24:09.405Z,98377.27
2018-01-17T10:26:35.857Z,98375.27
2018-01-17T10:29:02.249Z,98366.06
2018-01-17T10:31:29.873Z,98366.94
2018-01-17T10:33:56.241Z,98358.56
2018-01-17T10:36:22.577Z,98349.27
2018-01-17T10:38:48.962Z,98343.53
2018-01-17T10:41:15.353Z,98350.13
2018-01-17T10:43:41.748Z,98342.87
2018-01-17T10:46:08.253Z,98332.31
2018-01-17T10:48:34.640Z,98322.52
2018-01-17T10:51:00.984Z,98307.58
2018-01-17T10:53:27.380Z,98306.91
2018-01-17T10:55:53.776Z,98301.80
2018-01-17T10:58:20.162Z,98290.83
2018-01-17T11:00:46.545Z,98282.77
2018-01-17T11:03:12.959Z,98274.67
2018-01-17T11:05:39.452Z,98269.31
2018-01-17T11:08:05.857Z,98252.16
2018-01-17T11:10:32.396Z,98237.25
2018-01-17T11:12:58.816Z,98222.53
2018-01-17T11:15:25.201Z,98215.47
2018-01-17T11:17:51.608Z,98199.05
2018-01-17T11:20:18.168Z,98188.91
2018-01-17T11:22:44.536Z,98171.54
2018-01-17T11:25:10.952Z,98151.70
2018-01-17T11:27:37.387Z,98154.72
2018-01-17T11:30:03.875Z,98152.84
2018-01-17T11:32:30.325Z,98152.12
2018-01-17T11:34:56.700Z,98133.77
2018-01-17T11:37:23.077Z,98128.89
2018-01-17T11:39:49.500Z,98120.85
2018-01-17T11:42:15.934Z,98131.58
2018-01-17T11:44:42.341Z,98131.53
2018-01-17T11:47:08.892Z,98128.19
2018-01-17T11:49:35.384Z,98124.43
2018-01-17T11:52:02.294Z,98113.73
2018-01-17T11:54:28.713Z,98095.19
2018-01-17T11:56:55.160Z,98077.16
2018-01-17T11:59:21.629Z,98075.48
2018-01-17T12:01:48.128Z,98077.51
2018-01-17T12:04:14.464Z,98071.41
2018-01-17T12:06:40.870Z,98071.80
2018-01-17T12:09:07.339Z,98070.53
2018-01-17T12:11:33.741Z,98064.98
2018-01-17T12:14:00.132Z,98062.08
2018-01-17T12:16:26.572Z,98055.27
2018-01-17T12:18:52.976Z,98058.37
2018-01-17T12:21:19.401Z,98049.17
2018-01-17T12:23:45.873Z,98054.45
2018-01-17T12:26:12.336Z,98044.38
2018-01-17T12:28:38.897Z,98044.80
2018-01-17T12:31:05.281Z,98038.14
2018-01-17T12:33:31.745Z,98032.78
2018-01-17T12:35:58.212Z,98023.71
2018-01-17T12:38:24.661Z,98010.78
2018-01-17T12:40:51.064Z,97995.81
2018-01-17T12:43:17.554Z,97991.20
2018-01-17T12:45:43.907Z,97977.77
2018-01-17T12:48:10.300Z,97974.72
2018-01-17T12:50:36.696Z,97973.07
2018-01-17T12:53:03.136Z,97968.88
2018-01-17T12:55:29.517Z,97964.50
2018-01-17T12:57:55.948Z,97955.02
2018-01-17T13:00:22.373Z,97952.41
2018-01-17T13:02:48.757Z,97936.84
2018-01-17T13:05:15.167Z,97934.05
2018-01-17T13:07:41.700Z,97925.38
2018-01-17T13:10:08.104Z,97910.02
2018-01-17T13:12:34.528Z,97906.24
2018-01-17T13:15:00.872Z,97897.59
2018-01-17T13:17:27.265Z,97891.37
2018-01-17T13:19:53.617Z,97881.95
2018-01-17T13:22:20.048Z,97875.14
2018-01-17T13:24:46.505Z,97864.45
2018-01-17T13:27:12.925Z,97855.00
2018-01-17T13:29:39.352Z,97846.78
2018-01-17T13:32:05.766Z,97844.25
2018-01-17T13:34:32.177Z,97837.70
2018-01-17T13:36:58.580Z,97845.03
2018-01-17T13:39:25.005Z,97840.84
2018-01-17T13:41:51.541Z,97823.73
2018-01-17T13:44:17.949Z,97818.20
2018-01-17T13:46:44.326Z,97814.19
2018-01-17T13:49:10.878Z,97814.48
2018-01-17T13:51:37.326Z,97814.23
2018-01-17T13:54:03.728Z,97810.81
2018-01-17T13:56:30.216Z,97797.84
2018-01-17T13:58:56.616Z,97796.63
2018-01-17T14:01:23.007Z,97791.28
2018-01-17T14:03:49.440Z,97790.48
2018-01-17T14:06:15.781Z,97780.63
2018-01-17T14:08:42.156Z,97769.91
2018-01-17T14:11:08.572Z,97778.44
2018-01-17T14:13:35.068Z,97770.91
2018-01-17T14:16:01.506Z,97772.87
2018-01-17T14:18:27.911Z,97783.73
2018-01-17T14:20:54.320Z,97771.58
2018-01-17T14:23:20.820Z,97774.44
2018-01-17T14:25:47.192Z,97770.60
2018-01-17T14:28:13.565Z,97766.95
2018-01-17T14:30:39.972Z,97756.50
2018-01-17T14:33:06.372Z,97747.84
2018-01-17T14:35:32.790Z,97751.06
2018-01-17T14:37:59.252Z,97737.84
2018-01-17T14:40:25.652Z,97736.09
2018-01-17T14:42:58.200Z,97743.16
2018-01-17T14:45:24.624Z,97736.00
2018-01-17T14:47:50.997Z,97734.45
2018-01-17T14:50:17.380Z,97724.68
2018-01-17T14:52:43.876Z,97720.39
2018-01-17T14:55:10.300Z,97711.90
2018-01-17T14:57:36.760Z,97714.59
2018-01-17T15:00:03.240Z,97701.64
2018-01-17T15:02:29.684Z,97687.58
2018-01-17T15:04:56.081Z,97688.30
2018-01-17T15:07:22.524Z,97675.79
2018-01-17T15:09:48.952Z,97679.38
2018-01-17T15:12:15.304Z,97674.16
2018-01-17T15:14:41.672Z,97665.44
2018-01-17T15:17:08.072Z,97659.13
2018-01-17T15:19:34.524Z,97662.42
2018-01-17T15:22:00.944Z,97657.80
2018-01-17T15:24:27.390Z,97653.29
2018-01-17T15:26:53.808Z,97647.07
2018-01-17T15:29:20.240Z,97641.92
2018-01-17T15:31:46.640Z,97642.69
2018-01-17T15:34:13.001Z,97630.06
2018-01-17T15:36:39.397Z,97632.22
2018-01-17T15:39:05.785Z,97640.48
2018-01-17T15:41:32.244Z,97634.10
2018-01-17T15:43:58.709Z,97617.02
2018-01-17T15:46:25.312Z,97613.84
2018-01-17T15:48:51.700Z,97612.03
2018-01-17T15:51:18.200Z,97608.44
2018-01-17T15:53:44.676Z,97602.59
2018-01-17T15:56:11.066Z,97598.75
2018-01-17T15:58:37.445Z,97598.19
2018-01-17T16:01:03.965Z,97591.97
2018-01-17T16:03:30.334Z,97591.39
2018-01-17T16:05:56.701Z,97593.68
2018-01-17T16:08:23.097Z,97601.85
2018-01-17T16:10:49.477Z,97595.21
2018-01-17T16:13:15.806Z,97594.32
2018-01-17T16:15:42.156Z,97590.02
2018-01-17T16:18:08.489Z,97589.78
2018-01-17T16:20:34.881Z,97581.30
2018-01-17T16:23:01.408Z,97587.55
2018-01-17T16:25:27.819Z,97579.99
2018-01-17T16:27:54.221Z,97585.36
2018-01-17T16:30:20.601Z,97585.77
2018-01-17T16:32:46.994Z,97576.33
2018-01-17T16:35:13.344Z,97576.95
2018-01-17T16:37:39.745Z,97580.92
2018-01-17T16:40:06.148Z,97583.82
2018-01-17T16:42:32.513Z,97594.08
2018-01-17T16:44:58.972Z,97594.85
2018-01-17T16:47:25.311Z,97595.86
2018-01-17T16:49:51.684Z,97583.11
2018-01-17T16:52:18.077Z,97588.92
2018-01-17T16:54:44.429Z,97586.20
2018-01-17T16:57:10.808Z,97581.22
2018-01-17T16:59:37.184Z,97595.33
2018-01-17T17:02:03.624Z,97563.23
2018-01-17T17:04:29.997Z,97554.61
2018-01-17T17:06:56.360Z,97554.33
2018-01-17T17:09:22.779Z,97555.56
2018-01-17T17:11:49.364Z,97548.22
2018-01-17T17:14:16.111Z,97537.16
2018-01-17T17:16:43.196Z,97535.30
2018-01-17T17:19:10.065Z,97523.22
2018-01-17T17:21:37.037Z,97511.71
2018-01-17T17:24:03.522Z,97519.92
2018-01-17T17:26:29.869Z,97517.80
2018-01-17T17:28:56.267Z,97508.73
2018-01-17T17:31:22.612Z,97515.55
2018-01-17T17:33:48.948Z,97508.05
2018-01-17T17:36:15.436Z,97519.05
2018-01-17T17:38:41.834Z,97505.23
2018-01-17T17:41:08.225Z,97484.22
2018-01-17T17:43:34.642Z,97486.81
2018-01-17T17:46:01.040Z,97480.19
2018-01-17T17:48:27.377Z,97482.16
2018-01-17T17:50:54.389Z,97467.86
2018-01-17T17:53:21.395Z,97467.59
2018-01-17T17:55:49.049Z,97465.86
2018-01-17T17:58:17.261Z,97467.11
2018-01-17T18:00:44.924Z,97463.83
2018-01-17T18:03:11.718Z,97450.47
2018-01-17T18:05:39.120Z,97442.08
2018-01-17T18:08:06.146Z,97435.86
2018-01-17T18:10:33.058Z,97436.84
2018-01-17T18:13:00.546Z,97436.48
2018-01-17T18:15:26.988Z,97429.02
2018-01-17T18:17:53.411Z,97421.94
2018-01-17T18:20:19.828Z,97419.39
2018-01-17T18:22:46.266Z,97415.95
2018-01-17T18:25:12.681Z,97405.57
2018-01-17T18:27:39.020Z,97395.19
2018-01-17T18:30:05.685Z,97402.66
2018-01-17T18:32:32.514Z,97399.69
2018-01-17T18:34:59.445Z,97392.06
2018-01-17T18:37:27.013Z,97388.11
2018-01-17T18:39:54.046Z,97380.05
2018-01-17T18:42:21.029Z,97383.84
2018-01-17T18:44:47.931Z,97373.89
2018-01-17T18:47:14.870Z,97373.37
2018-01-17T18:49:41.747Z,97366.31
2018-01-17T18:52:08.557Z,97360.55
2018-01-17T18:54:34.915Z,97359.70
2018-01-17T18:57:01.433Z,97356.22
2018-01-17T18:59:27.804Z,97352.52
2018-01-17T19:01:54.160Z,97343.84
2018-01-17T19:04:20.575Z,97336.88
2018-01-17T19:06:46.909Z,97336.54
2018-01-17T19:09:13.236Z,97333.03
2018-01-17T19:11:39.564Z,97322.44
2018-01-17T19:14:05.952Z,97307.55
2018-01-17T19:16:32.329Z,97299.52
2018-01-17T19:18:58.653Z,97298.45
2018-01-17T19:21:25.038Z,97291.92
2018-01-17T19:23:51.471Z,97287.80
2018-01-17T19:26:17.833Z,97279.89
2018-01-17T19:28:44.220Z,97282.38
2018-01-17T19:31:10.608Z,97278.92
2018-01-17T19:33:36.953Z,97273.91
2018-01-17T19:36:03.333Z,97268.11
2018-01-17T19:38:29.733Z,97260.61
2018-01-17T19:40:56.105Z,97266.52
2018-01-17T19:43:22.468Z,97266.72
2018-01-17T19:45:48.897Z,97259.64
2018-01-17T19:48:15.225Z,97260.13
2018-01-17T19:50:41.624Z,97252.91
2018-01-17T19:53:07.993Z,97253.84
2018-01-17T19:55:34.349Z,97245.58
2018-01-17T19:58:00.748Z,97239.02
2018-01-17T20:00:27.145Z,97232.88
2018-01-17T20:02:53.609Z,97227.16
2018-01-17T20:05:20.057Z,97228.69
2018-01-17T20:07:46.411Z,97237.66
2018-01-17T20:10:12.788Z,97238.58
2018-01-17T20:12:39.135Z,97237.34
2018-01-17T20:15:05.534Z,97228.08
2018-01-17T20:17:31.962Z,97226.02
2018-01-17T20:19:58.393Z,97214.29
2018-01-17T20:22:24.821Z,97206.41
2018-01-17T20:24:51.233Z,97198.09
2018-01-17T20:27:17.604Z,97185.98
2018-01-17T20:29:44.062Z,97177.28
2018-01-17T20:32:10.457Z,97177.33
2018-01-17T20:34:36.820Z,97172.20
2018-01-17T20:37:03.169Z,97170.96
2018-01-17T20:39:35.817Z,97175.67
2018-01-17T20:42:02.253Z,97180.75
2018-01-17T20:44:28.601Z,97176.86
2018-01-17T20:46:55.337Z,97187.61
2018-01-17T20:49:21.833Z,97229.31
2018-01-17T20:51:50.300Z,97273.14
2018-01-17T20:54:16.853Z,97288.95
2018-01-17T20:56:43.846Z,97298.16
2018-01-17T20:59:11.384Z,97319.74
2018-01-17T21:04:59.725Z,97344.91
2018-01-17T21:07:26.096Z,97360.94
2018-01-17T21:09:52.437Z,97355.86
2018-01-17T21:12:18.813Z,97376.38
2018-01-17T21:14:45.176Z,97363.21
2018-01-17T21:17:11.513Z,97378.58
2018-01-17T21:19:37.973Z,97372.19
2018-01-17T21:22:04.343Z,97390.95
2018-01-17T21:24:30.697Z,97367.80
2018-01-17T21:26:57.069Z,97375.31
2018-01-17T21:29:23.401Z,97362.15
2018-01-17T21:31:49.789Z,97359.11
2018-01-17T21:34:16.205Z,97361.02
2018-01-17T21:36:42.565Z,97354.28
2018-01-17T21:39:08.968Z,97353.04
2018-01-17T21:41:35.460Z,97360.47
2018-01-17T21:44:07.856Z,97364.80
2018-01-17T21:46:36.256Z,97359.42
2018-01-17T21:49:02.686Z,97343.98
2018-01-17T21:51:29.116Z,97334.09
2018-01-17T21:53:55.529Z,97344.34
2018-01-17T21:56:21.840Z,97343.58
2018-01-17T21:58:48.221Z,97341.35
2018-01-17T22:01:14.671Z,97327.05
2018-01-17T22:03:41.043Z,97330.31
2018-01-17T22:06:07.461Z,97334.98
2018-01-17T22:08:33.869Z,97335.82
2018-01-17T22:11:00.252Z,97342.16
2018-01-17T22:13:26.595Z,97341.44
2018-01-17T22:15:52.992Z,97336.98
2018-01-17T22:18:19.438Z,97320.70
2018-01-17T22:20:45.825Z,97325.56
2018-01-17T22:23:12.193Z,97320.48
2018-01-17T22:25:38.572Z,97329.06
2018-01-17T22:28:04.938Z,97328.34
2018-01-17T22:30:31.333Z,97335.36
2018-01-17T22:32:57.720Z,97343.08
2018-01-17T22:35:24.077Z,97332.00
2018-01-17T22:37:50.428Z,97335.50
2018-01-17T22:40:16.828Z,97323.69
2018-01-17T22:42:43.170Z,97340.64
2018-01-17T22:45:09.557Z,97318.13
2018-01-17T22:47:35.908Z,97317.75
2018-01-17T22:50:02.349Z,97324.91
2018-01-17T22:52:28.765Z,97318.91
2018-01-17T22:54:55.178Z,97320.28
2018-01-17T22:57:21.581Z,97323.77
2018-01-17T22:59:48.001Z,97309.05
2018-01-17T23:02:14.317Z,97304.16
2018-01-17T23:04:40.799Z,97278.86
2018-01-17T23:07:07.176Z,97289.67
2018-01-17T23:09:33.552Z,97304.73
2018-01-17T23:12:00.039Z,97294.95
2018-01-17T23:14:26.460Z,97293.04
2018-01-17T23:16:52.874Z,97305.88
2018-01-17T23:19:19.225Z,97311.71
2018-01-17T23:21:45.588Z,97319.38
2018-01-17T23:24:11.968Z,97326.78
2018-01-17T23:26:38.378Z,97324.50
2018-01-17T23:29:04.757Z,97316.57
2018-01-17T23:31:31.105Z,97331.38
2018-01-17T23:33:57.496Z,97323.85
2018-01-17T23:36:23.929Z,97323.82
2018-01-17T23:38:50.313Z,97309.02
2018-01-17T23:41:16.700Z,97320.60
2018-01-17T23:43:43.126Z,97316.20
2018-01-17T23:46:09.484Z,97330.97
2018-01-17T23:48:35.832Z,97341.67
2018-01-17T23:51:02.300Z,97370.05
2018-01-17T23:53:28.676Z,97368.31
2018-01-17T23:55:55.089Z,97379.33
2018-01-17T23:58:21.549Z,97378.61
